sensor_id;sensor_type;location;lat;lon;timestamp;pressure;altitude;pressure_sealevel;temperature;humidity
11172;BME280;5642;50.830;12.082;2023-05-20T00:14:15;100032.84;;;16.80;35.94
11172;BME280;5642;50.830;12.082;2023-05-20T00:16:45;100030.81;;;16.86;36.03
11172;BME280;5642;50.830;12.082;2023-05-20T00:19:12;100011.97;;;16.74;35.88
11172;BME280;5642;50.830;12.082;2023-05-20T00:21:39;100034.31;;;16.86;35.84
11172;BME280;5642;50.830;12.082;2023-05-20T00:24:05;100031.63;;;16.88;35.89
11172;BME280;5642;50.830;12.082;2023-05-20T00:26:33;100025.22;;;16.92;35.96
11172;BME280;5642;50.830;12.082;2023-05-20T00:28:59;100015.97;;;16.83;35.85
11172;BME280;5642;50.830;12.082;2023-05-20T00:31:26;100008.72;;;16.87;36.05
11172;BME280;5642;50.830;12.082;2023-05-20T00:33:52;100029.59;;;16.93;36.05
11172;BME280;5642;50.830;12.082;2023-05-20T00:36:19;100024.25;;;16.94;36.12
11172;BME280;5642;50.830;12.082;2023-05-20T00:38:46;100032.13;;;16.96;36.20
11172;BME280;5642;50.830;12.082;2023-05-20T00:41:23;100026.75;;;16.97;36.37
11172;BME280;5642;50.830;12.082;2023-05-20T00:43:53;100023.44;;;16.92;36.46
11172;BME280;5642;50.830;12.082;2023-05-20T00:46:20;100023.44;;;16.92;36.20
11172;BME280;5642;50.830;12.082;2023-05-20T00:48:47;100019.31;;;16.87;36.43
11172;BME280;5642;50.830;12.082;2023-05-20T00:51:15;100027.25;;;16.87;36.28
11172;BME280;5642;50.830;12.082;2023-05-20T00:53:42;100025.53;;;16.86;36.48
11172;BME280;5642;50.830;12.082;2023-05-20T00:56:10;100019.38;;;16.85;36.33
11172;BME280;5642;50.830;12.082;2023-05-20T00:58:37;100031.69;;;16.86;36.41
11172;BME280;5642;50.830;12.082;2023-05-20T01:01:04;100037.91;;;16.85;36.41
11172;BME280;5642;50.830;12.082;2023-05-20T01:03:31;100041.56;;;16.82;36.52
11172;BME280;5642;50.830;12.082;2023-05-20T01:05:58;100019.03;;;16.74;36.44
11172;BME280;5642;50.830;12.082;2023-05-20T01:08:30;100032.84;;;16.80;36.92
11172;BME280;5642;50.830;12.082;2023-05-20T01:11:03;100030.31;;;16.77;36.68
11172;BME280;5642;50.830;12.082;2023-05-20T02:12:29;100015.69;;;16.31;37.36
11172;BME280;5642;50.830;12.082;2023-05-20T02:14:57;100002.75;;;16.25;37.30
11172;BME280;5642;50.830;12.082;2023-05-20T02:17:24;99983.75;;;16.17;37.41
11172;BME280;5642;50.830;12.082;2023-05-20T02:19:52;100007.75;;;16.31;37.25
11172;BME280;5642;50.830;12.082;2023-05-20T02:22:18;100011.78;;;16.40;37.34
11172;BME280;5642;50.830;12.082;2023-05-20T02:24:45;99995.41;;;16.32;37.31
11172;BME280;5642;50.830;12.082;2023-05-20T02:27:12;99988.63;;;16.26;37.37
11172;BME280;5642;50.830;12.082;2023-05-20T02:29:41;100010.91;;;16.39;37.33
11172;BME280;5642;50.830;12.082;2023-05-20T02:32:08;99985.31;;;16.21;37.51
11172;BME280;5642;50.830;12.082;2023-05-20T02:34:35;100007.34;;;16.40;37.32
11172;BME280;5642;50.830;12.082;2023-05-20T02:37:01;99997.91;;;16.35;37.50
11172;BME280;5642;50.830;12.082;2023-05-20T02:39:28;100006.69;;;16.35;37.75
11172;BME280;5642;50.830;12.082;2023-05-20T02:41:54;99996.31;;;16.31;37.74
11172;BME280;5642;50.830;12.082;2023-05-20T02:44:21;99970.66;;;16.14;37.72
11172;BME280;5642;50.830;12.082;2023-05-20T02:46:47;99998.47;;;16.23;37.82
11172;BME280;5642;50.830;12.082;2023-05-20T02:49:19;100010.41;;;16.31;37.83
11172;BME280;5642;50.830;12.082;2023-05-20T02:51:45;100009.50;;;16.32;37.70
11172;BME280;5642;50.830;12.082;2023-05-20T02:54:11;100005.97;;;16.32;37.92
11172;BME280;5642;50.830;12.082;2023-05-20T02:56:37;100002.47;;;16.31;37.94
11172;BME280;5642;50.830;12.082;2023-05-20T02:59:04;99994.81;;;16.25;37.85
11172;BME280;5642;50.830;12.082;2023-05-20T03:01:31;100002.25;;;16.36;38.05
11172;BME280;5642;50.830;12.082;2023-05-20T03:04:01;99994.38;;;16.34;37.83
11172;BME280;5642;50.830;12.082;2023-05-20T03:06:27;99996.91;;;16.37;37.92
11172;BME280;5642;50.830;12.082;2023-05-20T03:08:55;99986.47;;;16.34;38.06
11172;BME280;5642;50.830;12.082;2023-05-20T03:11:21;99984.69;;;16.35;37.97
11172;BME280;5642;50.830;12.082;2023-05-20T03:13:47;100000.19;;;16.42;37.97
11172;BME280;5642;50.830;12.082;2023-05-20T03:16:13;99959.03;;;16.18;38.12
11172;BME280;5642;50.830;12.082;2023-05-20T03:18:39;99992.19;;;16.44;38.13
11172;BME280;5642;50.830;12.082;2023-05-20T03:21:05;99997.41;;;16.45;37.95
11172;BME280;5642;50.830;12.082;2023-05-20T03:23:38;99991.19;;;16.47;38.17
11172;BME280;5642;50.830;12.082;2023-05-20T03:26:04;99988.69;;;16.43;38.00
11172;BME280;5642;50.830;12.082;2023-05-20T03:28:31;99994.91;;;16.42;38.18
11172;BME280;5642;50.830;12.082;2023-05-20T03:30:57;99980.13;;;16.38;38.27
11172;BME280;5642;50.830;12.082;2023-05-20T03:33:23;99991.75;;;16.34;38.35
11172;BME280;5642;50.830;12.082;2023-05-20T03:35:50;99985.03;;;16.27;38.52
11172;BME280;5642;50.830;12.082;2023-05-20T03:38:17;99980.94;;;16.20;38.28
11172;BME280;5642;50.830;12.082;2023-05-20T03:40:43;99992.31;;;16.22;38.59
11172;BME280;5642;50.830;12.082;2023-05-20T03:43:09;100000.47;;;16.18;38.53
11172;BME280;5642;50.830;12.082;2023-05-20T03:45:35;100004.94;;;16.16;38.53
11172;BME280;5642;50.830;12.082;2023-05-20T03:48:01;99980.97;;;16.00;38.60
11172;BME280;5642;50.830;12.082;2023-05-20T03:50:28;99992.13;;;16.06;38.67
11172;BME280;5642;50.830;12.082;2023-05-20T03:52:55;99976.72;;;15.97;38.65
11172;BME280;5642;50.830;12.082;2023-05-20T03:55:22;99986.53;;;15.94;38.86
11172;BME280;5642;50.830;12.082;2023-05-20T03:57:48;100002.13;;;16.00;38.71
11172;BME280;5642;50.830;12.082;2023-05-20T04:00:16;100008.41;;;15.97;38.89
11172;BME280;5642;50.830;12.082;2023-05-20T04:02:43;100019.97;;;15.95;38.74
11172;BME280;5642;50.830;12.082;2023-05-20T04:05:09;100021.69;;;15.96;38.60
11172;BME280;5642;50.830;12.082;2023-05-20T04:07:36;100026.81;;;15.99;38.62
11172;BME280;5642;50.830;12.082;2023-05-20T04:10:03;100022.41;;;15.99;38.95
11172;BME280;5642;50.830;12.082;2023-05-20T04:12:29;100032.72;;;16.05;38.78
11172;BME280;5642;50.830;12.082;2023-05-20T04:15:00;99974.75;;;15.82;38.98
11172;BME280;5642;50.830;12.082;2023-05-20T04:17:29;100018.22;;;16.14;38.92
11172;BME280;5642;50.830;12.082;2023-05-20T04:19:56;100030.41;;;16.18;38.68
11172;BME280;5642;50.830;12.082;2023-05-20T04:22:22;100034.03;;;16.16;38.97
11172;BME280;5642;50.830;12.082;2023-05-20T04:24:48;100026.16;;;16.14;38.80
11172;BME280;5642;50.830;12.082;2023-05-20T04:27:15;100020.88;;;16.14;38.88
11172;BME280;5642;50.830;12.082;2023-05-20T04:29:41;100026.84;;;16.19;39.03
11172;BME280;5642;50.830;12.082;2023-05-20T04:32:16;99981.25;;;15.94;39.09
11172;BME280;5642;50.830;12.082;2023-05-20T04:34:43;99980.28;;;15.96;38.94
11172;BME280;5642;50.830;12.082;2023-05-20T04:37:10;100008.84;;;16.07;38.85
11172;BME280;5642;50.830;12.082;2023-05-20T04:39:36;100015.19;;;16.23;39.11
11172;BME280;5642;50.830;12.082;2023-05-20T04:42:04;100020.06;;;16.32;39.01
11172;BME280;5642;50.830;12.082;2023-05-20T04:44:31;100017.34;;;16.34;38.95
11172;BME280;5642;50.830;12.082;2023-05-20T04:46:57;100020.00;;;16.34;38.89
11172;BME280;5642;50.830;12.082;2023-05-20T04:49:24;100012.31;;;16.28;39.07
11172;BME280;5642;50.830;12.082;2023-05-20T04:51:56;100009.63;;;16.29;39.10
11172;BME280;5642;50.830;12.082;2023-05-20T04:54:23;100005.19;;;16.30;38.93
11172;BME280;5642;50.830;12.082;2023-05-20T04:56:49;100011.91;;;16.37;38.97
11172;BME280;5642;50.830;12.082;2023-05-20T04:59:16;100009.25;;;16.37;39.00
11172;BME280;5642;50.830;12.082;2023-05-20T05:01:42;99986.31;;;16.19;38.97
11172;BME280;5642;50.830;12.082;2023-05-20T05:04:08;100004.03;;;16.35;39.13
11172;BME280;5642;50.830;12.082;2023-05-20T05:06:34;100016.22;;;16.39;39.02
11172;BME280;5642;50.830;12.082;2023-05-20T05:09:00;100009.25;;;16.37;39.16
11172;BME280;5642;50.830;12.082;2023-05-20T05:11:28;100003.91;;;16.38;39.21
11172;BME280;5642;50.830;12.082;2023-05-20T05:13:54;100012.66;;;16.40;39.22
11172;BME280;5642;50.830;12.082;2023-05-20T05:16:20;100016.84;;;16.44;39.17
11172;BME280;5642;50.830;12.082;2023-05-20T05:18:46;99984.38;;;16.22;39.27
11172;BME280;5642;50.830;12.082;2023-05-20T05:21:13;100014.16;;;16.46;39.40
11172;BME280;5642;50.830;12.082;2023-05-20T05:23:39;100013.72;;;16.55;39.23
11172;BME280;5642;50.830;12.082;2023-05-20T05:26:07;99997.25;;;16.49;39.15
11172;BME280;5642;50.830;12.082;2023-05-20T05:28:33;100005.38;;;16.64;39.01
11172;BME280;5642;50.830;12.082;2023-05-20T05:30:59;100020.41;;;16.82;39.13
11172;BME280;5642;50.830;12.082;2023-05-20T05:33:27;100000.84;;;16.85;38.79
11172;BME280;5642;50.830;12.082;2023-05-20T05:35:56;100010.09;;;17.12;38.85
11172;BME280;5642;50.830;12.082;2023-05-20T05:38:24;100004.59;;;17.34;38.66
11172;BME280;5642;50.830;12.082;2023-05-20T05:40:50;100015.78;;;17.58;38.64
11172;BME280;5642;50.830;12.082;2023-05-20T05:43:16;99995.38;;;17.77;38.45
11172;BME280;5642;50.830;12.082;2023-05-20T05:45:42;99984.69;;;17.96;38.37
11172;BME280;5642;50.830;12.082;2023-05-20T05:48:11;99991.91;;;18.10;38.42
11172;BME280;5642;50.830;12.082;2023-05-20T05:50:37;99996.09;;;18.14;38.60
11172;BME280;5642;50.830;12.082;2023-05-20T05:53:03;99965.97;;;17.99;38.73
11172;BME280;5642;50.830;12.082;2023-05-20T05:55:29;99990.66;;;18.17;38.79
11172;BME280;5642;50.830;12.082;2023-05-20T05:57:55;99994.97;;;18.35;38.56
11172;BME280;5642;50.830;12.082;2023-05-20T06:00:21;99975.19;;;18.40;38.45
11172;BME280;5642;50.830;12.082;2023-05-20T06:02:47;99995.28;;;18.62;38.44
11172;BME280;5642;50.830;12.082;2023-05-20T06:05:14;99990.06;;;18.76;38.32
11172;BME280;5642;50.830;12.082;2023-05-20T06:07:40;99997.16;;;18.91;38.42
11172;BME280;5642;50.830;12.082;2023-05-20T06:10:07;99958.56;;;18.86;38.35
11172;BME280;5642;50.830;12.082;2023-05-20T06:12:33;99966.44;;;19.03;38.27
11172;BME280;5642;50.830;12.082;2023-05-20T06:14:59;99990.63;;;19.28;38.08
11172;BME280;5642;50.830;12.082;2023-05-20T06:17:26;100000.78;;;19.36;38.11
11172;BME280;5642;50.830;12.082;2023-05-20T06:19:55;99997.72;;;19.28;38.14
11172;BME280;5642;50.830;12.082;2023-05-20T06:22:24;100004.78;;;19.13;38.25
11172;BME280;5642;50.830;12.082;2023-05-20T06:24:52;99986.38;;;18.94;38.42
11172;BME280;5642;50.830;12.082;2023-05-20T06:27:17;99996.16;;;18.94;38.49
11172;BME280;5642;50.830;12.082;2023-05-20T06:29:43;100004.19;;;19.08;38.45
11172;BME280;5642;50.830;12.082;2023-05-20T06:32:10;100000.88;;;19.34;38.10
11172;BME280;5642;50.830;12.082;2023-05-20T06:34:36;99962.47;;;19.40;38.01
11172;BME280;5642;50.830;12.082;2023-05-20T06:37:02;99970.47;;;19.84;37.83
11172;BME280;5642;50.830;12.082;2023-05-20T06:39:30;99958.53;;;20.05;37.52
11172;BME280;5642;50.830;12.082;2023-05-20T06:41:57;99987.81;;;20.33;37.80
11172;BME280;5642;50.830;12.082;2023-05-20T06:44:23;99978.41;;;20.42;37.47
11172;BME280;5642;50.830;12.082;2023-05-20T06:46:51;99988.00;;;20.59;37.75
11172;BME280;5642;50.830;12.082;2023-05-20T06:49:16;99984.25;;;20.76;37.67
11172;BME280;5642;50.830;12.082;2023-05-20T06:51:42;99980.19;;;20.97;37.73
11172;BME280;5642;50.830;12.082;2023-05-20T06:54:08;99986.94;;;21.17;37.40
11172;BME280;5642;50.830;12.082;2023-05-20T06:56:35;99982.72;;;21.39;37.23
11172;BME280;5642;50.830;12.082;2023-05-20T06:59:02;99989.47;;;21.45;37.30
11172;BME280;5642;50.830;12.082;2023-05-20T07:01:28;99951.44;;;21.16;37.24
11172;BME280;5642;50.830;12.082;2023-05-20T07:03:54;99961.69;;;20.95;37.44
11172;BME280;5642;50.830;12.082;2023-05-20T07:06:20;99979.31;;;20.69;37.81
11172;BME280;5642;50.830;12.082;2023-05-20T07:09:04;99963.94;;;20.32;38.01
11172;BME280;5642;50.830;12.082;2023-05-20T07:11:36;99968.13;;;20.22;38.29
11172;BME280;5642;50.830;12.082;2023-05-20T07:38:35;99935.28;;;20.37;38.05
11172;BME280;5642;50.830;12.082;2023-05-20T07:41:02;99916.25;;;20.29;37.95
11172;BME280;5642;50.830;12.082;2023-05-20T07:43:29;99937.34;;;20.46;38.47
11172;BME280;5642;50.830;12.082;2023-05-20T07:45:56;99934.09;;;20.55;38.31
11172;BME280;5642;50.830;12.082;2023-05-20T07:48:23;99931.53;;;20.54;38.25
11172;BME280;5642;50.830;12.082;2023-05-20T07:50:49;99936.50;;;20.46;38.14
11172;BME280;5642;50.830;12.082;2023-05-20T07:53:15;99928.88;;;20.40;38.43
11172;BME280;5642;50.830;12.082;2023-05-20T07:55:44;99933.25;;;20.41;38.25
11172;BME280;5642;50.830;12.082;2023-05-20T07:58:10;99913.31;;;20.33;38.16
11172;BME280;5642;50.830;12.082;2023-05-20T08:00:36;99888.72;;;20.44;38.33
11172;BME280;5642;50.830;12.082;2023-05-20T08:03:02;99917.97;;;20.98;38.16
11172;BME280;5642;50.830;12.082;2023-05-20T08:05:28;99895.09;;;21.35;37.76
11172;BME280;5642;50.830;12.082;2023-05-20T08:07:54;99907.16;;;21.91;37.61
11172;BME280;5642;50.830;12.082;2023-05-20T08:10:21;99914.06;;;22.44;37.10
11172;BME280;5642;50.830;12.082;2023-05-20T08:12:47;99911.19;;;22.95;36.99
11172;BME280;5642;50.830;12.082;2023-05-20T09:13:39;99853.13;;;30.41;34.21
11172;BME280;5642;50.830;12.082;2023-05-20T09:16:09;99831.66;;;31.13;33.75
11172;BME280;5642;50.830;12.082;2023-05-20T09:18:37;99840.59;;;32.18;33.50
11172;BME280;5642;50.830;12.082;2023-05-20T09:21:04;99807.75;;;32.75;33.09
11172;BME280;5642;50.830;12.082;2023-05-20T09:23:31;99832.78;;;33.45;33.23
11172;BME280;5642;50.830;12.082;2023-05-20T09:25:59;99840.88;;;33.97;32.44
11172;BME280;5642;50.830;12.082;2023-05-20T09:28:27;99816.84;;;34.45;32.39
11172;BME280;5642;50.830;12.082;2023-05-20T09:30:59;99814.22;;;35.15;31.98
11172;BME280;5642;50.830;12.082;2023-05-20T09:33:29;99821.28;;;35.87;31.95
11172;BME280;5642;50.830;12.082;2023-05-20T09:36:06;99809.31;;;36.22;31.85
11172;BME280;5642;50.830;12.082;2023-05-20T09:38:36;99815.34;;;36.72;31.55
11172;BME280;5642;50.830;12.082;2023-05-20T09:41:10;99813.69;;;37.10;31.09
11172;BME280;5642;50.830;12.082;2023-05-20T09:43:38;99816.88;;;37.34;31.09
11172;BME280;5642;50.830;12.082;2023-05-20T09:46:13;99811.41;;;37.47;30.81
11172;BME280;5642;50.830;12.082;2023-05-20T09:48:40;99806.16;;;37.32;30.51
11172;BME280;5642;50.830;12.082;2023-05-20T09:51:11;99800.44;;;37.53;30.71
11172;BME280;5642;50.830;12.082;2023-05-20T09:53:39;99798.16;;;37.70;30.68
11172;BME280;5642;50.830;12.082;2023-05-20T09:56:06;99798.53;;;37.74;30.29
11172;BME280;5642;50.830;12.082;2023-05-20T09:58:34;99794.13;;;37.66;30.06
11172;BME280;5642;50.830;12.082;2023-05-20T10:01:00;99776.28;;;37.70;30.36
11172;BME280;5642;50.830;12.082;2023-05-20T10:03:27;99774.59;;;37.62;29.90
11172;BME280;5642;50.830;12.082;2023-05-20T10:09:04;99783.44;;;36.92;29.90
11172;BME280;5642;50.830;12.082;2023-05-20T11:15:31;99729.94;;;34.79;30.41
11172;BME280;5642;50.830;12.082;2023-05-20T11:18:00;99726.13;;;34.74;30.33
11172;BME280;5642;50.830;12.082;2023-05-20T11:20:27;99713.19;;;34.61;29.82
11172;BME280;5642;50.830;12.082;2023-05-20T11:22:53;99718.81;;;34.32;29.56
11172;BME280;5642;50.830;12.082;2023-05-20T11:25:21;99725.53;;;33.85;29.78
11172;BME280;5642;50.830;12.082;2023-05-20T11:27:50;99724.78;;;33.47;30.02
11172;BME280;5642;50.830;12.082;2023-05-20T11:30:19;99697.59;;;32.88;29.52
11172;BME280;5642;50.830;12.082;2023-05-20T11:32:57;99709.41;;;32.50;29.46
11172;BME280;5642;50.830;12.082;2023-05-20T11:35:25;99717.47;;;31.81;29.56
11172;BME280;5642;50.830;12.082;2023-05-20T11:38:03;99709.00;;;31.05;29.68
11172;BME280;5642;50.830;12.082;2023-05-20T11:40:31;99719.00;;;30.40;29.91
11172;BME280;5642;50.830;12.082;2023-05-20T11:42:59;99719.66;;;29.75;29.76
11172;BME280;5642;50.830;12.082;2023-05-20T11:45:26;99702.53;;;29.25;29.99
11172;BME280;5642;50.830;12.082;2023-05-20T11:48:02;99714.13;;;28.91;30.05
11172;BME280;5642;50.830;12.082;2023-05-20T11:50:37;99694.38;;;28.47;30.11
11172;BME280;5642;50.830;12.082;2023-05-20T11:53:10;99703.88;;;28.06;30.57
11172;BME280;5642;50.830;12.082;2023-05-20T11:58:19;99693.56;;;27.47;30.75
11172;BME280;5642;50.830;12.082;2023-05-20T12:00:46;99688.69;;;27.23;31.03
11172;BME280;5642;50.830;12.082;2023-05-20T12:03:12;99701.19;;;27.14;30.94
11172;BME280;5642;50.830;12.082;2023-05-20T12:05:38;99681.25;;;27.07;30.84
11172;BME280;5642;50.830;12.082;2023-05-20T12:08:05;99704.66;;;26.97;30.75
11172;BME280;5642;50.830;12.082;2023-05-20T12:10:32;99698.44;;;26.77;30.83
11172;BME280;5642;50.830;12.082;2023-05-20T12:12:59;99703.81;;;26.68;31.15
11172;BME280;5642;50.830;12.082;2023-05-20T14:18:11;99528.44;;;26.75;32.62
11172;BME280;5642;50.830;12.082;2023-05-20T14:20:37;99544.66;;;26.83;32.33
11172;BME280;5642;50.830;12.082;2023-05-20T14:23:03;99546.50;;;26.83;32.44
11172;BME280;5642;50.830;12.082;2023-05-20T14:25:29;99535.78;;;26.73;32.44
11172;BME280;5642;50.830;12.082;2023-05-20T14:27:55;99548.38;;;26.73;32.79
11172;BME280;5642;50.830;12.082;2023-05-20T14:30:21;99530.88;;;26.59;32.66
11172;BME280;5642;50.830;12.082;2023-05-20T14:32:50;99532.31;;;26.54;32.76
11172;BME280;5642;50.830;12.082;2023-05-20T14:35:16;99530.69;;;26.43;32.87
11172;BME280;5642;50.830;12.082;2023-05-20T14:37:43;99531.81;;;26.31;32.83
11172;BME280;5642;50.830;12.082;2023-05-20T14:40:09;99545.84;;;26.25;32.74
11172;BME280;5642;50.830;12.082;2023-05-20T14:42:36;99540.16;;;26.18;33.09
11172;BME280;5642;50.830;12.082;2023-05-20T14:45:05;99537.47;;;26.18;33.17
11172;BME280;5642;50.830;12.082;2023-05-20T14:47:32;99536.94;;;26.15;32.98
11172;BME280;5642;50.830;12.082;2023-05-20T14:49:58;99536.34;;;26.11;33.23
11172;BME280;5642;50.830;12.082;2023-05-20T14:52:25;99532.09;;;26.08;33.03
11172;BME280;5642;50.830;12.082;2023-05-20T14:54:51;99521.09;;;26.11;33.00
11172;BME280;5642;50.830;12.082;2023-05-20T14:57:18;99526.19;;;26.15;33.00
11172;BME280;5642;50.830;12.082;2023-05-20T14:59:44;99533.25;;;26.25;33.30
11172;BME280;5642;50.830;12.082;2023-05-20T15:02:10;99518.97;;;26.34;33.07
11172;BME280;5642;50.830;12.082;2023-05-20T15:04:38;99511.16;;;26.41;33.10
11172;BME280;5642;50.830;12.082;2023-05-20T15:07:04;99515.09;;;26.46;32.95
11172;BME280;5642;50.830;12.082;2023-05-20T15:09:30;99525.56;;;26.49;33.26
11172;BME280;5642;50.830;12.082;2023-05-20T15:11:57;99516.50;;;26.50;32.99
11172;BME280;5642;50.830;12.082;2023-05-20T15:14:22;99531.78;;;26.50;33.12
11172;BME280;5642;50.830;12.082;2023-05-20T15:16:49;99514.69;;;26.41;33.18
11172;BME280;5642;50.830;12.082;2023-05-20T15:19:15;99493.56;;;26.29;32.94
11172;BME280;5642;50.830;12.082;2023-05-20T15:21:41;99494.91;;;26.23;33.32
11172;BME280;5642;50.830;12.082;2023-05-20T15:24:07;99502.44;;;26.20;33.45
11172;BME280;5642;50.830;12.082;2023-05-20T15:26:34;99508.94;;;26.17;33.46
11172;BME280;5642;50.830;12.082;2023-05-20T15:29:06;99499.03;;;26.08;33.27
11172;BME280;5642;50.830;12.082;2023-05-20T15:31:32;99496.09;;;26.01;33.71
11172;BME280;5642;50.830;12.082;2023-05-20T15:33:59;99497.38;;;25.97;33.76
11172;BME280;5642;50.830;12.082;2023-05-20T15:36:25;99495.16;;;25.93;33.66
11172;BME280;5642;50.830;12.082;2023-05-20T15:38:51;99481.59;;;25.85;33.50
11172;BME280;5642;50.830;12.082;2023-05-20T15:41:17;99479.03;;;25.83;33.64
11172;BME280;5642;50.830;12.082;2023-05-20T15:43:43;99491.88;;;25.89;33.84
11172;BME280;5642;50.830;12.082;2023-05-20T15:46:10;99482.44;;;25.85;33.73
11172;BME280;5642;50.830;12.082;2023-05-20T15:48:36;99485.13;;;25.85;33.77
11172;BME280;5642;50.830;12.082;2023-05-20T15:51:03;99481.88;;;25.82;33.82
11172;BME280;5642;50.830;12.082;2023-05-20T15:53:31;99476.22;;;25.85;33.96
11172;BME280;5642;50.830;12.082;2023-05-20T15:55:58;99484.97;;;25.87;33.89
11172;BME280;5642;50.830;12.082;2023-05-20T15:58:24;99469.31;;;25.82;33.73
11172;BME280;5642;50.830;12.082;2023-05-20T16:00:52;99476.22;;;25.85;34.08
11172;BME280;5642;50.830;12.082;2023-05-20T16:03:20;99464.38;;;25.78;34.01
11172;BME280;5642;50.830;12.082;2023-05-20T16:05:50;99469.72;;;25.87;34.07
11172;BME280;5642;50.830;12.082;2023-05-20T16:08:17;99463.22;;;25.90;34.21
11172;BME280;5642;50.830;12.082;2023-05-20T16:10:46;99462.09;;;25.92;33.78
11172;BME280;5642;50.830;12.082;2023-05-20T16:13:30;99457.41;;;25.94;34.11
11172;BME280;5642;50.830;12.082;2023-05-20T21:17:08;99595.59;;;18.89;40.38
11172;BME280;5642;50.830;12.082;2023-05-20T21:19:34;99565.34;;;18.77;40.29
11172;BME280;5642;50.830;12.082;2023-05-20T21:22:02;99578.22;;;18.84;40.21
11172;BME280;5642;50.830;12.082;2023-05-20T21:24:28;99586.50;;;18.79;40.45
11172;BME280;5642;50.830;12.082;2023-05-20T21:26:54;99587.53;;;18.76;40.44
11172;BME280;5642;50.830;12.082;2023-05-20T21:29:20;99583.19;;;18.75;40.44
11172;BME280;5642;50.830;12.082;2023-05-20T21:31:53;99577.13;;;18.73;40.49
11172;BME280;5642;50.830;12.082;2023-05-20T21:34:19;99581.75;;;18.70;40.83
11172;BME280;5642;50.830;12.082;2023-05-20T21:36:45;99573.22;;;18.65;40.47
11172;BME280;5642;50.830;12.082;2023-05-20T21:39:11;99523.66;;;18.37;40.72
11172;BME280;5642;50.830;12.082;2023-05-20T21:41:37;99545.63;;;18.39;40.85
11172;BME280;5642;50.830;12.082;2023-05-20T21:44:18;99533.78;;;18.30;41.00
11172;BME280;5642;50.830;12.082;2023-05-20T21:46:44;99541.25;;;18.24;40.78
11172;BME280;5642;50.830;12.082;2023-05-20T21:49:10;99567.31;;;18.31;41.00
11172;BME280;5642;50.830;12.082;2023-05-20T21:51:36;99562.47;;;18.24;41.14
11172;BME280;5642;50.830;12.082;2023-05-20T21:54:08;99577.84;;;18.33;41.07
11172;BME280;5642;50.830;12.082;2023-05-20T21:56:35;99591.34;;;18.28;41.09
11172;BME280;5642;50.830;12.082;2023-05-20T21:59:01;99566.34;;;18.18;41.13
11172;BME280;5642;50.830;12.082;2023-05-20T22:01:27;99547.84;;;18.03;41.02
11172;BME280;5642;50.830;12.082;2023-05-20T22:03:53;99550.31;;;18.06;41.13
11172;BME280;5642;50.830;12.082;2023-05-20T22:06:21;99582.06;;;18.21;41.21
11172;BME280;5642;50.830;12.082;2023-05-20T22:08:48;99574.31;;;18.18;41.11
11172;BME280;5642;50.830;12.082;2023-05-20T22:11:14;99551.38;;;18.03;41.14
11172;BME280;5642;50.830;12.082;2023-05-20T22:13:41;99581.28;;;18.19;41.34
11172;BME280;5642;50.830;12.082;2023-05-20T22:16:08;99582.44;;;18.15;41.19
